This is the latest recevied weather packets stored in our database for station/object K1NOT-WX. If no packets are shown the sender has not sent any weather packets the latest 1 day(s).
| Time | Temp. | Humidity | Pressure | Rain* | Wind** | Luminosity | Snow |
|---|---|---|---|---|---|---|---|
| 1778058733 | 11.11° C | 91% | 1008.8 hPa | 0 mm | - | - | - |
| 1778057833 | 11.67° C | 90% | 1008.5 hPa | 0 mm | - | - | - |
| 1778056933 | 11.67° C | 90% | 1008.5 hPa | 0 mm | - | - | - |
| 1778056033 | 12.22° C | 90% | 1008.5 hPa | 0 mm | - | - | - |
| 1778043432 | 15° C | 83% | 1006.8 hPa | 0 mm | - | - | - |
| 1778041632 | 15.56° C | 81% | 1006.8 hPa | 0 mm | - | - | - |
| 1778040732 | 15.56° C | 80% | 1006.8 hPa | 0 mm | - | - | - |
| 1778038032 | 16.11° C | 76% | 1006.4 hPa | 0 mm | - | - | - |
| 1778036232 | 16.67° C | 73% | 1006.1 hPa | 0 mm | - | - | - |
| 1778035332 | 17.22° C | 72% | 1006.1 hPa | 0 mm | - | - | - |
| 1778034432 | 17.22° C | 71% | 1006.1 hPa | 0 mm | - | - | - |
| 1778032632 | 17.78° C | 70% | 1006.1 hPa | 0 mm | - | - | - |
| 1778031732 | 17.22° C | 71% | 1006.1 hPa | 0 mm | - | - | - |
| 1778029932 | 17.22° C | 72% | 1006.4 hPa | 0 mm | - | - | - |
| 1778029032 | 17.22° C | 73% | 1006.4 hPa | 0 mm | - | - | - |
| 1778028132 | 17.22° C | 72% | 1006.1 hPa | 0 mm | - | - | - |
| 1778027232 | 17.22° C | 73% | 1006.4 hPa | 0 mm | - | - | - |
| 1778023633 | 17.78° C | 72% | 1006.8 hPa | 0 mm | - | - | - |
| 1778016433 | 16.11° C | 74% | 1007.4 hPa | 0 mm | - | - | - |
| 1778015533 | 16.11° C | 75% | 1007.8 hPa | 0 mm | - | - | - |
| 1778014633 | 15.56° C | 75% | 1007.8 hPa | 0 mm | - | - | - |
| 1778012833 | 15° C | 78% | 1007.8 hPa | 0 mm | - | - | - |
| 1778011933 | 14.44° C | 80% | 1007.8 hPa | 0 mm | - | - | - |
| 1778011033 | 14.44° C | 80% | 1008.1 hPa | 0 mm | - | - | - |
* Rain latest hour (hover to see other rain measurements)
** Current wind speed in m/s (hover to see current wind gust speed)